Weather History for KBTA - December, 2013

Change the Weather History Date:

Tuesday, December 17, 2013

  Actual Average (KOMA) Record (KOMA)
Temperature  
Mean Temperature 34 °F 25 °F  
Max Temperature 41 °F 34 °F 68 °F (1939)
Min Temperature 27 °F 16 °F -9 °F (1983)
Degree Days  
Heating Degree Days 31 40  
Month to date heating degree days 637  
Since 1 July heating degree days 1907  
Cooling Degree Days 0 0  
Month to date cooling degree days 0  
Year to date cooling degree days 1113  
Moisture  
Dew Point 21 °F    
Average Humidity 63    
Maximum Humidity 84    
Minimum Humidity 34    
Precipitation  
Precipitation 0.00 in 0.03 in 0.45 in (1897)
Month to date precipitation 0.64  
Year to date precipitation 30.22  
Snow  
Snow 0.00 in 0.20 in - ()
Month to date snowfall 3.4  
Since 1 July snowfall 6.2  
Snow Depth -    
Sea Level Pressure  
Sea Level Pressure 30.18 in    
Wind  
Wind Speed 8 mph (West)    
Max Wind Speed 21 mph    
Max Gust Speed 26 mph    
Visibility 10 miles    
Events      
T = Trace of Precipitation, MM = Missing Value Source: NWS Daily Summary

Daily Weather History Graph

Daily Weather History Graph

Search for Another Location

Airport or City:

Trip Planner

Search our weather history database for the weather conditions in past years. The results will help you decide how hot, cold, wet, or windy it might be!

Date:

Astronomy

Dec. 17, 2013 Rise Set
Actual Time 7:45 AM CST 4:56 PM CST
Civil Twilight 7:13 AM CST 5:27 PM CST
Nautical Twilight 6:38 AM CST 6:02 PM CST
Astronomical Twilight 6:05 AM CST 6:36 PM CST
Moon 5:37 PM CST (12/17) 7:41 AM CST (12/17)
Length of Visible Light 10h 14m
Length of Day
9h 11m
Full, 100% of the Moon is Illuminated
Dec 17
Full
Dec 25
Last Quarter
Jan 1
New
Jan 7
First Quarter
Jan 15
Full

Hourly Weather History & Observations

Time (CST) Temp. Windchill Dew Point Humidity Pressure Visibility Wind Dir Wind Speed Gust Speed Precip Events Conditions
12:15 AM 32.0 °F 26.4 °F 27.7 °F 84% 30.13 in 10.0 mi WSW 5.8 mph - N/A   Overcast
12:35 AM 32.7 °F 28.3 °F 27.9 °F 82% 30.13 in 10.0 mi SW 4.6 mph - N/A   Overcast
12:55 AM 32.0 °F 25.6 °F 27.7 °F 84% 30.12 in 10.0 mi SW 6.9 mph - N/A   Overcast
1:15 AM 32.0 °F 24.8 °F 27.1 °F 82% 30.11 in 10.0 mi SW 8.1 mph - N/A   Overcast
1:35 AM 32.0 °F 25.6 °F 26.8 °F 81% 30.11 in 10.0 mi SW 6.9 mph - N/A   Scattered Clouds
1:55 AM 31.5 °F 24.9 °F 26.1 °F 80% 30.11 in 10.0 mi WSW 6.9 mph - N/A   Clear
2:15 AM 32.0 °F 25.6 °F 26.8 °F 81% 30.12 in 10.0 mi West 6.9 mph - N/A   Clear
2:35 AM 32.0 °F 23.6 °F 26.8 °F 81% 30.12 in 10.0 mi SW 10.4 mph - N/A   Mostly Cloudy
2:55 AM 32.0 °F 24.8 °F 27.1 °F 82% 30.12 in 10.0 mi WSW 8.1 mph - N/A   Overcast
3:15 AM 32.0 °F 25.6 °F 27.1 °F 82% 30.13 in 10.0 mi West 6.9 mph - N/A   Overcast
3:35 AM 32.5 °F 26.2 °F 27.3 °F 81% 30.13 in 10.0 mi West 6.9 mph - N/A   Overcast
3:55 AM 32.5 °F 26.2 °F 27.3 °F 81% 30.13 in 10.0 mi West 6.9 mph - N/A   Overcast
4:15 AM 32.9 °F 27.5 °F 27.5 °F 81% 30.13 in 10.0 mi West 5.8 mph - N/A   Overcast
4:35 AM 33.1 °F 26.9 °F 28.0 °F 82% 30.13 in 10.0 mi West 6.9 mph - N/A   Overcast
4:55 AM 32.9 °F 26.7 °F 27.5 °F 81% 30.13 in 10.0 mi West 6.9 mph - N/A   Mostly Cloudy
5:15 AM 32.0 °F 25.6 °F 26.6 °F 80% 30.13 in 10.0 mi West 6.9 mph - N/A   Scattered Clouds
5:35 AM 32.0 °F 24.8 °F 26.2 °F 79% 30.14 in 10.0 mi West 8.1 mph - N/A   Clear
5:55 AM 31.5 °F 24.9 °F 25.7 °F 79% 30.14 in 10.0 mi West 6.9 mph - N/A   Clear
6:15 AM 29.7 °F 22.0 °F 24.8 °F 82% 30.15 in 10.0 mi West 8.1 mph - N/A   Clear
6:35 AM 29.5 °F 21.1 °F 24.6 °F 82% 30.15 in 10.0 mi West 9.2 mph - N/A   Clear
6:55 AM 28.9 °F 20.4 °F 24.3 °F 83% 30.16 in 10.0 mi West 9.2 mph - N/A   Clear
7:15 AM 28.0 °F 18.6 °F 23.7 °F 84% 30.18 in 10.0 mi WNW 10.4 mph - N/A   Clear
7:35 AM 28.9 °F 19.8 °F 24.3 °F 83% 30.19 in 10.0 mi WNW 10.4 mph - N/A   Mostly Cloudy
7:55 AM 29.8 °F 21.5 °F 24.6 °F 81% 30.19 in 10.0 mi WNW 9.2 mph - N/A   Scattered Clouds
8:15 AM 29.8 °F 22.2 °F 24.6 °F 81% 30.20 in 10.0 mi WNW 8.1 mph - N/A   Clear
8:35 AM 30.2 °F 21.9 °F 24.6 °F 80% 30.21 in 10.0 mi West 9.2 mph - N/A   Clear
8:55 AM 30.9 °F 22.8 °F 25.0 °F 79% 30.22 in 10.0 mi WNW 9.2 mph - N/A   Clear
9:15 AM 32.0 °F 24.2 °F 25.7 °F 78% 30.24 in 10.0 mi WNW 9.2 mph - N/A   Clear
9:35 AM 32.9 °F 24.1 °F 26.2 °F 76% 30.25 in 10.0 mi WNW 11.5 mph - N/A   Clear
9:55 AM 34.0 °F 25.0 °F 26.4 °F 74% 30.25 in 10.0 mi WNW 12.7 mph 18.4 mph N/A   Clear
10:15 AM 35.1 °F 25.9 °F 26.6 °F 71% 30.26 in 10.0 mi WNW 13.8 mph 19.6 mph N/A   Clear
10:35 AM 36.5 °F 26.7 °F 26.2 °F 66% 30.26 in 10.0 mi NW 17.3 mph 24.2 mph N/A   Clear
10:55 AM 37.4 °F 27.2 °F 25.3 °F 62% 30.26 in 10.0 mi NW 19.6 mph 25.3 mph N/A   Clear
11:15 AM 37.6 °F 28.4 °F 24.4 °F 59% 30.26 in 10.0 mi NW 16.1 mph 23.0 mph N/A   Clear
11:35 AM 38.3 °F 30.1 °F 22.6 °F 53% 30.25 in 10.0 mi NW 13.8 mph 25.3 mph N/A   Clear
11:55 AM 39.0 °F 29.6 °F 21.2 °F 49% 30.25 in 10.0 mi NW 18.4 mph 25.3 mph N/A   Clear
12:15 PM 39.0 °F 29.0 °F 19.6 °F 46% 30.24 in 10.0 mi NW 20.7 mph 26.5 mph N/A   Clear
12:35 PM 39.2 °F 30.5 °F 16.7 °F 40% 30.25 in 10.0 mi NW 16.1 mph 26.5 mph N/A   Clear
12:55 PM 40.1 °F 32.7 °F 18.0 °F 41% 30.24 in 10.0 mi NW 12.7 mph 20.7 mph N/A   Clear
1:15 PM 40.1 °F 31.0 °F 17.6 °F 40% 30.23 in 10.0 mi NW 18.4 mph 24.2 mph N/A   Clear
1:35 PM 40.5 °F 32.8 °F 18.0 °F 40% 30.23 in 10.0 mi NW 13.8 mph 18.4 mph N/A   Clear
1:55 PM 40.6 °F 31.4 °F 15.6 °F 36% 30.22 in 10.0 mi NW 19.6 mph 23.0 mph N/A   Clear
2:15 PM 41.0 °F 32.5 °F 16.3 °F 37% 30.21 in 10.0 mi NW 17.3 mph 21.9 mph N/A   Clear
2:35 PM 41.0 °F 33.1 °F 16.5 °F 37% 30.22 in 10.0 mi NW 15.0 mph 21.9 mph N/A   Clear
2:55 PM 41.5 °F 35.0 °F 16.5 °F 36% 30.22 in 10.0 mi NW 11.5 mph - N/A   Clear
3:15 PM 41.0 °F 33.5 °F 14.2 °F 34% 30.23 in 10.0 mi WNW 13.8 mph 18.4 mph N/A   Clear
3:35 PM 40.8 °F 33.7 °F 14.9 °F 35% 30.23 in 10.0 mi WNW 12.7 mph - N/A   Clear
3:55 PM 40.5 °F 36.5 °F 14.2 °F 34% 30.23 in 10.0 mi WNW 5.8 mph - N/A   Clear
4:15 PM 40.1 °F 35.3 °F 14.2 °F 35% 30.22 in 10.0 mi WNW 6.9 mph - N/A   Clear
4:35 PM 39.2 °F 37.0 °F 14.0 °F 36% 30.22 in 10.0 mi WNW 3.5 mph - N/A   Clear
4:55 PM 37.6 °F 35.1 °F 14.0 °F 38% 30.22 in 10.0 mi West 3.5 mph - N/A   Clear
5:15 PM 37.6 °F - 13.6 °F 38% 30.21 in 10.0 mi Calm Calm - N/A   Clear
5:35 PM 35.8 °F - 14.0 °F 41% 30.20 in 10.0 mi Calm Calm - N/A   Clear
5:55 PM 35.2 °F - 14.2 °F 42% 30.20 in 10.0 mi Calm Calm - N/A   Clear
6:15 PM 32.2 °F 28.9 °F 15.1 °F 49% 30.20 in 10.0 mi South 3.5 mph - N/A   Clear
6:35 PM 32.4 °F - 15.4 °F 50% 30.20 in 10.0 mi Calm Calm - N/A   Clear
6:55 PM 32.0 °F 28.7 °F 15.4 °F 51% 30.20 in 10.0 mi SSE 3.5 mph - N/A   Clear
7:15 PM 30.7 °F 27.3 °F 15.6 °F 54% 30.20 in 10.0 mi South 3.5 mph - N/A   Clear
7:35 PM 31.6 °F 27.0 °F 15.4 °F 51% 30.19 in 10.0 mi South 4.6 mph - N/A   Clear
7:55 PM 30.9 °F 26.2 °F 15.6 °F 53% 30.19 in 10.0 mi South 4.6 mph - N/A   Clear
8:15 PM 31.8 °F 27.3 °F 15.4 °F 51% 30.17 in 10.0 mi South 4.6 mph - N/A   Clear
8:35 PM 28.4 °F 23.3 °F 15.8 °F 59% 30.17 in 10.0 mi South 4.6 mph - N/A   Clear
8:55 PM 29.5 °F 24.5 °F 16.0 °F 57% 30.16 in 10.0 mi South 4.6 mph - N/A   Clear
9:15 PM 27.9 °F 22.6 °F 16.3 °F 62% 30.15 in 10.0 mi SSE 4.6 mph - N/A   Clear
9:35 PM 27.3 °F 22.0 °F 16.2 °F 63% 30.14 in 10.0 mi SSE 4.6 mph - N/A   Clear
9:55 PM 27.7 °F 21.3 °F 16.3 °F 62% 30.13 in 10.0 mi SSE 5.8 mph - N/A   Clear
10:15 PM 27.7 °F 20.4 °F 16.7 °F 63% 30.13 in 10.0 mi SSE 6.9 mph - N/A   Clear
10:35 PM 27.5 °F 20.2 °F 16.7 °F 64% 30.13 in 10.0 mi South 6.9 mph - N/A   Clear
10:55 PM 28.0 °F 20.0 °F 17.4 °F 64% 30.11 in 10.0 mi SSE 8.1 mph - N/A   Clear
11:15 PM 28.8 °F 20.2 °F 18.3 °F 65% 30.10 in 10.0 mi SSE 9.2 mph - N/A   Clear
11:35 PM 29.3 °F 20.8 °F 18.7 °F 65% 30.09 in 10.0 mi South 9.2 mph - N/A   Clear
11:55 PM 30.0 °F 20.5 °F 19.2 °F 64% 30.08 in 10.0 mi South 11.5 mph - N/A   Clear